Time;durP1;ratioP1;P1;durP2;ratioP2;P2;SDS_P1;SDS_P2;PMS_P1;PMS_P2;Temp;Humidity;BMP_temperature;BMP_pressure;BME280_temperature;BME280_humidity;BME280_pressure;Samples;Min_cycle;Max_cycle;Signal;HPM_P1;HPM_P2
2022/05/13 00:01:32;;;;;;;9.90;6.42;;;26.70;99.90;;;;;;1905363;72;21281;-83
2022/05/13 00:04:03;;;;;;;10.25;6.42;;;26.70;99.90;;;;;;1909224;72;21321;-80
2022/05/13 00:06:35;;;;;;;11.28;6.15;;;26.70;99.90;;;;;;1875567;73;21128;-82
2022/05/13 00:09:06;;;;;;;9.78;6.40;;;26.70;99.90;;;;;;1930202;73;21097;-83
2022/05/13 00:11:37;;;;;;;8.83;6.10;;;26.80;99.90;;;;;;1901050;74;21224;-81
2022/05/13 00:14:10;;;;;;;7.85;6.58;;;26.70;99.90;;;;;;1912300;73;21164;-81
2022/05/13 00:16:41;;;;;;;9.68;6.40;;;26.80;99.90;;;;;;1907182;73;21162;-81
2022/05/13 00:19:12;;;;;;;10.68;6.83;;;26.80;99.90;;;;;;1898211;71;21254;-81
2022/05/13 00:21:42;;;;;;;8.13;6.45;;;26.80;99.90;;;;;;1902152;72;21142;-80
2022/05/13 00:24:13;;;;;;;12.65;7.17;;;26.80;99.90;;;;;;1924302;71;21472;-81
2022/05/13 00:26:44;;;;;;;8.68;5.87;;;26.90;99.90;;;;;;1912165;73;21188;-81
2022/05/13 00:29:15;;;;;;;9.48;6.33;;;26.90;99.90;;;;;;1918775;73;21540;-82
2022/05/13 00:31:46;;;;;;;8.50;5.67;;;26.90;99.90;;;;;;1904365;72;21245;-81
2022/05/13 00:34:21;;;;;;;9.78;6.12;;;27.00;99.90;;;;;;1897999;72;21646;-81
2022/05/13 00:36:52;;;;;;;11.95;6.75;;;27.00;99.90;;;;;;1915197;71;21798;-80
2022/05/13 00:39:23;;;;;;;8.90;5.95;;;27.00;99.90;;;;;;1950475;71;21100;-74
2022/05/13 00:41:54;;;;;;;9.20;6.30;;;27.10;99.90;;;;;;1915227;72;21569;-71
2022/05/13 00:44:25;;;;;;;10.53;5.83;;;27.10;99.90;;;;;;1916729;72;21097;-72
2022/05/13 00:46:57;;;;;;;12.33;6.67;;;27.10;99.90;;;;;;1929673;71;21142;-73
2022/05/13 00:49:28;;;;;;;11.08;6.65;;;27.20;99.90;;;;;;1943650;72;21185;-72
2022/05/13 00:52:02;;;;;;;9.33;6.72;;;27.20;99.90;;;;;;1905249;72;21156;-71
2022/05/13 00:54:31;;;;;;;9.73;5.95;;;27.20;99.90;;;;;;1856068;74;21154;-73
2022/05/13 00:57:03;;;;;;;10.53;6.00;;;27.30;99.90;;;;;;1914752;73;21214;-71
2022/05/13 00:59:36;;;;;;;10.18;6.53;;;27.30;99.90;;;;;;1916538;73;21168;-72
2022/05/13 01:02:07;;;;;;;7.42;5.78;;;27.30;99.90;;;;;;1922538;73;21139;-72
2022/05/13 01:04:39;;;;;;;15.03;6.10;;;27.40;99.90;;;;;;1904633;73;21102;-72
2022/05/13 01:07:12;;;;;;;7.87;5.78;;;27.50;99.90;;;;;;1939194;73;21712;-71
2022/05/13 01:09:46;;;;;;;7.58;5.70;;;27.60;99.90;;;;;;1910955;73;21825;-72
2022/05/13 01:12:17;;;;;;;9.68;5.45;;;27.60;99.90;;;;;;1905470;72;21112;-72
2022/05/13 01:14:48;;;;;;;6.53;5.70;;;27.60;99.90;;;;;;1886144;74;21108;-72
2022/05/13 01:19:52;;;;;;;9.23;5.75;;;27.70;99.90;;;;;;1894208;73;21987;-73
2022/05/13 01:22:23;;;;;;;10.38;6.05;;;27.70;99.90;;;;;;1928142;73;21209;-73
2022/05/13 01:24:55;;;;;;;10.25;5.67;;;27.80;99.90;;;;;;1906395;73;21675;-72
2022/05/13 01:27:26;;;;;;;7.08;5.40;;;27.90;99.90;;;;;;1917193;73;21666;-73
2022/05/13 01:29:56;;;;;;;12.10;5.67;;;27.90;99.90;;;;;;1910606;73;21061;-72
2022/05/13 01:32:27;;;;;;;7.90;5.30;;;28.10;99.90;;;;;;1901225;73;21593;-72
2022/05/13 01:34:58;;;;;;;8.95;6.20;;;28.20;99.90;;;;;;1903273;73;21699;-72
2022/05/13 01:37:29;;;;;;;8.23;5.33;;;28.40;99.90;;;;;;1924494;73;21183;-73
2022/05/13 01:40:01;;;;;;;10.75;6.08;;;28.50;99.90;;;;;;1887504;74;21183;-72
2022/05/13 01:42:34;;;;;;;9.40;5.75;;;28.60;99.90;;;;;;1864382;75;21127;-73
2022/05/13 01:45:07;;;;;;;8.13;5.33;;;28.80;99.90;;;;;;1875967;75;21223;-73
2022/05/13 01:47:40;;;;;;;8.65;5.37;;;28.80;99.90;;;;;;1838896;76;21544;-73
2022/05/13 01:50:11;;;;;;;15.28;6.08;;;28.80;99.90;;;;;;1848913;76;21215;-73
2022/05/13 01:55:29;;;;;;;10.47;5.27;;;28.80;99.90;;;;;;1817332;76;21352;-72
2022/05/13 01:58:00;;;;;;;7.12;4.83;;;28.80;99.90;;;;;;1830094;76;21663;-72
2022/05/13 02:00:30;;;;;;;7.72;4.67;;;28.70;99.90;;;;;;1881217;74;21593;-71
2022/05/13 02:05:33;;;;;;;7.90;4.70;;;28.70;99.90;;;;;;1868964;74;21735;-72
2022/05/13 02:08:05;;;;;;;7.95;4.92;;;28.70;99.90;;;;;;1870609;74;21491;-72
2022/05/13 02:10:36;;;;;;;6.78;4.70;;;28.60;99.90;;;;;;1882909;74;21074;-71
2022/05/13 02:13:06;;;;;;;9.68;4.90;;;28.60;99.90;;;;;;1890581;74;21150;-72
2022/05/13 02:15:37;;;;;;;8.63;4.35;;;28.60;99.90;;;;;;1890129;74;21154;-72
2022/05/13 02:18:10;;;;;;;6.55;4.83;;;28.70;99.90;;;;;;1924145;74;21768;-72
2022/05/13 02:20:42;;;;;;;8.85;5.15;;;28.70;99.90;;;;;;1880078;75;21154;-72
2022/05/13 02:23:13;;;;;;;7.28;4.55;;;28.80;99.90;;;;;;1881613;75;21131;-73
2022/05/13 02:25:44;;;;;;;6.25;4.62;;;28.90;99.90;;;;;;1876631;74;21171;-73
2022/05/13 02:28:15;;;;;;;8.75;4.62;;;28.90;99.90;;;;;;1895822;74;21705;-73
2022/05/13 02:30:47;;;;;;;7.25;4.33;;;29.00;99.90;;;;;;1922699;74;21152;-73
2022/05/13 02:33:18;;;;;;;8.43;4.75;;;29.00;99.90;;;;;;1877261;74;21719;-73
2022/05/13 02:35:50;;;;;;;9.20;4.95;;;29.00;99.90;;;;;;1868301;74;21581;-73
2022/05/13 02:38:21;;;;;;;7.78;4.62;;;29.00;99.90;;;;;;1867135;74;21691;-73
2022/05/13 02:43:26;;;;;;;7.58;4.45;;;29.00;99.90;;;;;;1881884;74;21096;-72
2022/05/13 02:45:57;;;;;;;5.83;4.67;;;29.10;99.90;;;;;;1877040;74;21551;-73
2022/05/13 02:48:28;;;;;;;8.15;4.50;;;29.00;99.90;;;;;;1884619;74;21644;-73
2022/05/13 02:50:59;;;;;;;5.95;4.17;;;29.10;99.90;;;;;;1891863;74;21068;-73
2022/05/13 02:53:31;;;;;;;7.03;4.55;;;29.00;99.90;;;;;;1909944;74;21128;-72
2022/05/13 02:56:02;;;;;;;7.15;4.83;;;29.00;99.90;;;;;;1895871;75;21545;-72
2022/05/13 02:58:33;;;;;;;13.95;5.20;;;29.10;99.90;;;;;;1883878;75;21137;-72
2022/05/13 03:01:05;;;;;;;7.08;4.87;;;29.20;99.90;;;;;;1883519;74;21632;-71
2022/05/13 03:03:38;;;;;;;9.28;5.50;;;29.20;99.90;;;;;;1885395;74;21079;-71
2022/05/13 03:06:10;;;;;;;7.67;4.90;;;29.30;99.90;;;;;;1879225;76;21198;-71
2022/05/13 03:08:41;;;;;;;7.80;4.70;;;29.40;99.90;;;;;;1860150;74;21088;-72
2022/05/13 03:11:13;;;;;;;8.33;5.92;;;29.50;99.90;;;;;;1886512;74;21618;-72
2022/05/13 03:13:44;;;;;;;7.67;5.58;;;29.60;99.90;;;;;;1870384;74;21225;-71
2022/05/13 03:16:19;;;;;;;9.23;5.03;;;29.70;99.90;;;;;;1869247;75;21532;-72
2022/05/13 03:18:55;;;;;;;6.92;4.85;;;29.90;99.60;;;;;;1893379;74;21162;-72
2022/05/13 03:21:26;;;;;;;8.13;4.80;;;30.00;99.90;;;;;;1884775;74;21634;-70
2022/05/13 03:23:58;;;;;;;7.60;5.42;;;30.10;98.10;;;;;;1917149;74;21266;-71
2022/05/13 03:26:28;;;;;;;8.15;5.30;;;30.20;98.50;;;;;;1915980;74;21190;-71
2022/05/13 03:28:59;;;;;;;6.90;5.45;;;30.20;98.60;;;;;;1890807;74;21072;-70
2022/05/13 03:31:32;;;;;;;6.95;5.42;;;30.30;97.90;;;;;;1887692;74;21264;-72
2022/05/13 03:34:03;;;;;;;8.33;5.67;;;30.40;98.30;;;;;;1864194;75;21490;-72
2022/05/13 03:36:34;;;;;;;7.33;5.28;;;30.40;98.20;;;;;;1855838;74;21178;-71
2022/05/13 03:39:05;;;;;;;7.67;5.65;;;30.60;98.30;;;;;;1900547;74;21194;-71
2022/05/13 03:41:36;;;;;;;6.67;5.05;;;30.70;97.80;;;;;;1867201;75;21269;-71
2022/05/13 03:44:08;;;;;;;7.55;5.20;;;30.80;96.80;;;;;;1871044;75;21255;-71
2022/05/13 03:46:39;;;;;;;7.78;5.72;;;30.80;97.10;;;;;;1878113;75;21248;-71
2022/05/13 03:49:11;;;;;;;11.48;5.97;;;30.80;97.50;;;;;;1842947;76;21715;-72
2022/05/13 03:51:42;;;;;;;7.20;5.37;;;30.80;97.50;;;;;;1838079;77;21629;-71
2022/05/13 03:54:12;;;;;;;6.70;5.30;;;30.80;97.60;;;;;;1870045;74;21291;-71
2022/05/13 03:56:43;;;;;;;7.03;5.17;;;30.80;97.30;;;;;;1822808;78;21668;-72
2022/05/13 03:59:14;;;;;;;6.15;5.03;;;30.90;97.30;;;;;;1807543;77;21621;-72
2022/05/13 04:01:45;;;;;;;8.63;5.62;;;30.90;97.00;;;;;;1838904;76;21163;-72
2022/05/13 04:04:20;;;;;;;7.12;5.20;;;31.00;97.20;;;;;;1841292;77;21159;-71
2022/05/13 04:09:21;;;;;;;7.05;5.37;;;31.30;96.60;;;;;;1846957;76;21174;-72
2022/05/13 04:16:58;;;;;;;15.60;6.17;;;31.60;95.40;;;;;;1813659;78;21141;-71
2022/05/13 04:19:29;;;;;;;6.95;5.10;;;31.60;95.50;;;;;;1871955;75;21149;-72
2022/05/13 04:22:01;;;;;;;10.10;5.28;;;31.70;95.10;;;;;;1821828;77;21259;-72
2022/05/13 04:24:32;;;;;;;5.42;4.65;;;31.80;94.30;;;;;;1859619;74;21941;-72
2022/05/13 04:27:03;;;;;;;8.43;4.60;;;31.90;94.90;;;;;;1871120;74;21134;-71
2022/05/13 04:29:36;;;;;;;6.83;5.20;;;31.90;94.60;;;;;;1893272;74;21631;-71
2022/05/13 04:32:07;;;;;;;7.83;5.05;;;31.90;94.20;;;;;;1914924;74;21130;-71
2022/05/13 04:34:38;;;;;;;6.78;5.70;;;31.90;94.80;;;;;;1900126;74;21089;-72
2022/05/13 04:37:09;;;;;;;8.20;5.20;;;31.80;94.70;;;;;;1878449;74;21624;-72
2022/05/13 04:39:40;;;;;;;7.50;5.05;;;31.70;94.50;;;;;;1865362;74;21109;-71
2022/05/13 04:44:43;;;;;;;8.08;5.08;;;31.80;94.10;;;;;;1894095;74;21137;-72
2022/05/13 04:50:10;;;;;;;7.78;4.90;;;32.00;93.20;;;;;;1875496;75;21639;-71
2022/05/13 04:52:42;;;;;;;7.62;5.00;;;32.00;92.50;;;;;;1849275;74;21122;-71
2022/05/13 04:55:13;;;;;;;6.70;4.85;;;32.00;92.90;;;;;;1873893;75;21157;-72
2022/05/13 04:57:45;;;;;;;8.53;5.12;;;32.00;92.20;;;;;;1863793;75;22271;-72
2022/05/13 05:00:19;;;;;;;6.83;5.62;;;32.00;92.20;;;;;;1872221;74;21086;-70
2022/05/13 05:02:50;;;;;;;8.58;4.90;;;32.00;93.00;;;;;;1860732;74;21554;-71
2022/05/13 05:05:22;;;;;;;7.03;5.22;;;32.20;92.40;;;;;;1850265;75;21262;-71
2022/05/13 05:07:56;;;;;;;8.80;5.55;;;32.20;91.60;;;;;;1853148;75;21468;-70
2022/05/13 05:10:27;;;;;;;8.68;5.20;;;32.30;91.70;;;;;;1848211;76;21144;-71
2022/05/13 05:12:59;;;;;;;6.00;4.85;;;32.40;92.00;;;;;;1860721;75;21638;-71
2022/05/13 05:15:33;;;;;;;7.10;5.17;;;32.50;90.70;;;;;;1856296;74;21784;-71
2022/05/13 05:18:04;;;;;;;7.33;5.62;;;32.60;91.20;;;;;;1815559;77;21661;-71
2022/05/13 05:20:36;;;;;;;6.72;5.25;;;32.70;91.60;;;;;;1887449;74;21163;-71
2022/05/13 05:23:07;;;;;;;6.87;5.03;;;32.80;91.00;;;;;;1864022;75;21165;-71
2022/05/13 05:25:38;;;;;;;7.05;5.65;;;32.90;90.60;;;;;;1866441;75;21241;-71
2022/05/13 05:28:10;;;;;;;8.95;6.05;;;32.90;90.90;;;;;;1866196;75;21555;-71
2022/05/13 05:30:42;;;;;;;6.60;5.40;;;32.90;91.70;;;;;;1816135;78;21224;-70
2022/05/13 05:33:13;;;;;;;7.75;5.55;;;32.80;91.80;;;;;;1851407;75;21167;-71
2022/05/13 05:35:46;;;;;;;7.97;5.47;;;32.80;90.80;;;;;;1840177;76;21155;-72
2022/05/13 05:38:17;;;;;;;10.05;6.47;;;32.70;90.80;;;;;;1799124;78;21155;-71
2022/05/13 05:40:48;;;;;;;7.08;5.28;;;32.60;91.30;;;;;;1816021;78;21236;-72
2022/05/13 05:43:21;;;;;;;7.42;5.50;;;32.60;90.70;;;;;;1844439;76;21119;-70
2022/05/13 05:45:52;;;;;;;7.17;5.10;;;32.50;90.70;;;;;;1839777;75;21088;-72
2022/05/13 05:48:23;;;;;;;10.85;5.40;;;32.40;90.80;;;;;;1845196;76;21176;-71
2022/05/13 05:50:58;;;;;;;9.50;4.60;;;32.40;90.80;;;;;;1836156;75;21490;-70
2022/05/13 05:58:35;;;;;;;7.03;5.55;;;32.60;90.30;;;;;;1835006;75;21099;-70
2022/05/13 06:01:07;;;;;;;8.73;6.47;;;32.70;90.20;;;;;;1809343;77;21185;-71
2022/05/13 06:03:38;;;;;;;8.28;5.90;;;32.80;90.90;;;;;;1849868;77;21186;-70
2022/05/13 06:06:12;;;;;;;9.95;6.15;;;32.80;91.10;;;;;;1865462;75;21715;-71
2022/05/13 06:08:42;;;;;;;8.68;6.00;;;32.90;90.40;;;;;;1860975;76;21145;-71
2022/05/13 06:11:13;;;;;;;7.08;5.53;;;33.00;90.50;;;;;;1846208;75;21160;-70
2022/05/13 06:13:45;;;;;;;5.72;5.20;;;33.00;90.30;;;;;;1851823;75;21612;-71
2022/05/13 06:16:16;;;;;;;7.87;5.70;;;33.00;90.60;;;;;;1820441;76;21171;-71
2022/05/13 06:18:47;;;;;;;6.42;5.15;;;33.00;90.50;;;;;;1823390;76;21249;-71
2022/05/13 06:21:19;;;;;;;7.92;5.80;;;33.00;90.20;;;;;;1863240;74;21226;-71
2022/05/13 06:23:50;;;;;;;10.03;5.67;;;33.00;90.10;;;;;;1873587;76;21151;-71
2022/05/13 06:26:21;;;;;;;6.80;4.67;;;33.00;89.50;;;;;;1877442;76;21681;-72
2022/05/13 06:28:52;;;;;;;6.35;4.92;;;33.00;87.70;;;;;;1878292;74;21196;-72
2022/05/13 06:31:23;;;;;;;6.35;4.08;;;33.00;86.40;;;;;;1878160;74;21186;-72
2022/05/13 06:33:55;;;;;;;7.80;5.20;;;32.90;86.30;;;;;;1877374;75;21145;-70
2022/05/13 06:36:26;;;;;;;8.78;5.15;;;32.90;88.00;;;;;;1888355;75;21105;-70
2022/05/13 06:38:57;;;;;;;8.93;5.62;;;32.90;88.20;;;;;;1877029;75;21572;-71
2022/05/13 06:41:28;;;;;;;7.65;5.08;;;32.80;89.00;;;;;;1864485;75;21631;-71
2022/05/13 06:44:02;;;;;;;9.30;5.17;;;32.80;89.30;;;;;;1878577;74;21242;-71
2022/05/13 06:46:35;;;;;;;9.43;5.12;;;32.90;88.40;;;;;;1867196;76;21117;-70
2022/05/13 06:49:07;;;;;;;8.75;5.12;;;32.90;88.00;;;;;;1873048;75;22329;-70
2022/05/13 06:51:44;;;;;;;9.80;5.70;;;32.90;88.30;;;;;;1862573;75;21697;-71
2022/05/13 06:54:15;;;;;;;8.05;5.53;;;33.00;89.00;;;;;;1846863;75;21621;-72
2022/05/13 06:56:48;;;;;;;9.48;5.28;;;32.90;89.30;;;;;;1832594;77;21846;-70
2022/05/13 06:59:19;;;;;;;7.08;5.33;;;32.80;88.40;;;;;;1833845;75;21096;-70
2022/05/13 07:01:50;;;;;;;9.45;5.90;;;32.80;89.40;;;;;;1837351;77;21238;-70
2022/05/13 07:04:23;;;;;;;8.43;5.53;;;32.80;90.00;;;;;;1848032;76;22103;-70
2022/05/13 07:06:54;;;;;;;10.48;5.12;;;32.90;90.00;;;;;;1821671;77;21691;-70
2022/05/13 07:09:25;;;;;;;8.73;5.10;;;32.90;90.00;;;;;;1812267;77;21217;-70
2022/05/13 07:11:56;;;;;;;7.90;5.20;;;32.90;90.00;;;;;;1831019;77;21099;-70
2022/05/13 07:14:26;;;;;;;9.03;5.72;;;32.90;89.50;;;;;;1850517;76;21185;-70
2022/05/13 07:16:58;;;;;;;7.30;5.62;;;32.80;88.90;;;;;;1868925;74;21105;-70
2022/05/13 07:19:28;;;;;;;8.35;5.95;;;32.80;90.00;;;;;;1868692;74;21223;-70
2022/05/13 07:22:00;;;;;;;8.60;5.55;;;32.90;89.90;;;;;;1830069;74;21186;-70
2022/05/13 07:24:31;;;;;;;9.88;5.55;;;32.90;90.10;;;;;;1834504;77;21618;-70
2022/05/13 07:27:02;;;;;;;9.90;5.40;;;33.00;89.00;;;;;;1846343;76;21220;-70
2022/05/13 07:29:34;;;;;;;9.55;5.55;;;32.90;89.30;;;;;;1856420;75;21154;-71
2022/05/13 07:32:05;;;;;;;10.70;7.15;;;33.00;89.20;;;;;;1864197;75;22427;-70
2022/05/13 07:34:36;;;;;;;10.03;5.95;;;32.90;87.70;;;;;;1884675;74;21660;-71
2022/05/13 07:37:07;;;;;;;10.55;6.30;;;32.90;88.20;;;;;;1866550;75;21225;-70
2022/05/13 07:42:11;;;;;;;11.35;5.67;;;32.80;88.60;;;;;;1881298;72;21121;-70
2022/05/13 07:44:43;;;;;;;7.55;5.40;;;32.70;88.80;;;;;;1874302;73;21221;-71
2022/05/13 07:47:14;;;;;;;8.53;5.20;;;32.70;89.20;;;;;;1866091;74;21135;-71
2022/05/13 07:49:45;;;;;;;9.05;5.78;;;32.60;88.80;;;;;;1873536;74;21703;-70
2022/05/13 07:52:16;;;;;;;8.68;4.78;;;32.60;88.80;;;;;;1863760;74;21275;-72
2022/05/13 07:54:47;;;;;;;7.03;5.55;;;32.70;88.10;;;;;;1834913;76;21202;-71
2022/05/13 07:57:18;;;;;;;9.60;5.80;;;32.70;89.00;;;;;;1821141;75;21107;-70
2022/05/13 08:02:21;;;;;;;6.95;5.15;;;32.60;88.50;;;;;;1841233;76;21159;-70
2022/05/13 08:04:52;;;;;;;7.65;5.55;;;32.60;87.80;;;;;;1835487;77;21209;-71
2022/05/13 08:07:23;;;;;;;8.10;5.72;;;32.50;87.60;;;;;;1832486;77;21031;-70
2022/05/13 08:09:57;;;;;;;8.50;5.97;;;32.50;89.20;;;;;;1834633;76;21207;-70
2022/05/13 08:12:28;;;;;;;9.75;6.60;;;32.40;89.90;;;;;;1855294;75;21878;-70
2022/05/13 08:14:59;;;;;;;8.90;6.72;;;32.40;90.30;;;;;;1861924;75;21175;-70
2022/05/13 08:17:32;;;;;;;8.03;6.10;;;32.40;90.50;;;;;;1899410;73;21206;-71
2022/05/13 08:20:03;;;;;;;8.43;6.50;;;32.50;90.40;;;;;;1886667;73;21154;-71
2022/05/13 08:22:34;;;;;;;9.08;6.60;;;32.50;90.10;;;;;;1881578;73;21140;-71
2022/05/13 08:25:09;;;;;;;10.72;6.20;;;32.50;89.70;;;;;;1863447;76;21213;-71
2022/05/13 08:27:40;;;;;;;6.28;5.50;;;32.60;89.80;;;;;;1865425;74;21244;-71
2022/05/13 08:30:12;;;;;;;12.47;5.62;;;32.60;88.80;;;;;;1868282;74;21483;-71
2022/05/13 08:32:44;;;;;;;9.75;5.60;;;32.60;87.90;;;;;;1813281;77;21777;-71
2022/05/13 08:35:17;;;;;;;7.72;4.90;;;32.60;87.70;;;;;;1890223;73;21589;-72
2022/05/13 08:37:51;;;;;;;10.82;5.78;;;32.60;87.20;;;;;;1893471;73;21143;-71
2022/05/13 08:40:24;;;;;;;7.55;6.00;;;32.70;87.50;;;;;;1883413;74;21132;-72
2022/05/13 08:42:59;;;;;;;8.05;5.90;;;32.70;86.40;;;;;;1879432;73;21545;-70
2022/05/13 08:45:31;;;;;;;10.10;5.92;;;32.70;86.40;;;;;;1878818;74;21093;-71
2022/05/13 08:48:04;;;;;;;9.65;5.37;;;32.70;87.90;;;;;;1878128;74;21276;-70
2022/05/13 08:50:37;;;;;;;8.30;5.50;;;32.60;87.30;;;;;;1878446;74;21159;-70
2022/05/13 08:53:11;;;;;;;8.13;5.70;;;32.60;84.80;;;;;;1893016;73;21656;-71
2022/05/13 08:55:46;;;;;;;8.58;5.45;;;32.60;85.30;;;;;;1855905;74;21584;-71
2022/05/13 08:58:19;;;;;;;9.60;5.78;;;32.50;85.60;;;;;;1841982;74;21262;-71
2022/05/13 09:00:53;;;;;;;9.23;5.67;;;32.60;86.60;;;;;;1852470;74;21769;-72
2022/05/13 09:03:27;;;;;;;12.75;5.40;;;32.50;85.70;;;;;;1869789;74;21134;-72
2022/05/13 09:06:00;;;;;;;7.53;5.58;;;32.50;85.30;;;;;;1866516;74;21627;-72
2022/05/13 09:08:34;;;;;;;12.60;6.33;;;32.50;86.70;;;;;;1859468;75;21086;-72
2022/05/13 09:11:09;;;;;;;;;;;32.50;88.70;;;;;;1811018;78;21627;-72
2022/05/13 09:13:42;;;;;;;11.88;6.92;;;32.50;86.70;;;;;;1831171;75;20224;-72
2022/05/13 09:16:15;;;;;;;9.85;6.87;;;32.50;87.20;;;;;;1850725;74;21605;-73
2022/05/13 09:18:51;;;;;;;10.75;6.70;;;32.40;87.80;;;;;;1885444;74;21075;-72
2022/05/13 09:21:23;;;;;;;12.90;7.53;;;32.40;87.80;;;;;;1877674;74;21725;-72
2022/05/13 09:23:54;;;;;;;8.88;6.80;;;32.40;89.00;;;;;;1876927;74;21119;-71
2022/05/13 09:26:27;;;;;;;9.63;6.72;;;32.40;88.60;;;;;;1878852;74;21705;-71
2022/05/13 09:29:00;;;;;;;12.07;6.42;;;32.40;89.50;;;;;;1853157;75;21171;-71
2022/05/13 09:31:34;;;;;;;10.82;7.00;;;32.40;88.30;;;;;;1848066;75;21224;-74
2022/05/13 09:34:08;;;;;;;12.10;6.30;;;32.40;89.20;;;;;;1842789;75;21194;-73
2022/05/13 09:36:39;;;;;;;10.60;5.72;;;32.30;88.20;;;;;;1879007;74;21607;-73
2022/05/13 09:39:12;;;;;;;9.40;6.10;;;32.30;87.10;;;;;;1892236;74;21221;-73
2022/05/13 09:41:52;;;;;;;9.40;6.30;;;32.30;88.10;;;;;;1882471;74;22451;-71
2022/05/13 09:44:26;;;;;;;7.92;6.22;;;32.20;87.90;;;;;;1889353;74;21128;-73
2022/05/13 09:47:01;;;;;;;8.68;6.37;;;32.10;88.20;;;;;;1863178;75;21221;-71
2022/05/13 09:49:36;;;;;;;10.48;6.87;;;32.00;88.70;;;;;;1879527;74;21095;-71
2022/05/13 09:52:10;;;;;;;10.70;6.20;;;32.00;89.10;;;;;;1852416;75;21268;-72
2022/05/13 09:54:43;;;;;;;9.20;6.47;;;32.00;89.00;;;;;;1882186;74;21125;-72
2022/05/13 09:57:16;;;;;;;8.93;5.92;;;32.00;88.80;;;;;;1877023;73;21677;-72
2022/05/13 09:59:49;;;;;;;8.98;6.12;;;31.90;88.80;;;;;;1873452;74;21118;-71
2022/05/13 10:02:23;;;;;;;10.38;6.75;;;31.90;88.60;;;;;;1872159;74;21642;-78
2022/05/13 10:04:56;;;;;;;9.58;6.62;;;31.90;90.00;;;;;;1874328;75;21172;-73
2022/05/13 10:07:31;;;;;;;6.92;6.12;;;32.00;89.70;;;;;;1873873;74;21611;-73
2022/05/13 10:15:12;;;;;;;13.48;6.83;;;32.00;88.40;;;;;;1807524;77;21142;-71
2022/05/13 10:17:45;;;;;;;16.90;6.80;;;32.00;88.40;;;;;;1840153;75;21530;-72
2022/05/13 10:20:19;;;;;;;10.25;6.28;;;32.00;88.70;;;;;;1873948;74;21231;-71
2022/05/13 10:22:53;;;;;;;12.18;6.97;;;32.00;88.50;;;;;;1867658;75;21214;-72
2022/05/13 10:25:27;;;;;;;15.15;6.83;;;32.00;88.80;;;;;;1804533;77;21243;-71
2022/05/13 10:28:01;;;;;;;10.00;5.70;;;32.10;88.00;;;;;;1900734;74;21658;-73
2022/05/13 10:30:34;;;;;;;10.13;6.08;;;32.10;86.30;;;;;;1823625;77;21619;-71
2022/05/13 10:33:07;;;;;;;11.35;5.75;;;32.10;86.30;;;;;;1850258;74;21071;-71
2022/05/13 10:35:41;;;;;;;8.63;5.67;;;32.10;86.00;;;;;;1867345;74;21611;-71
2022/05/13 10:38:15;;;;;;;9.48;5.83;;;32.10;85.90;;;;;;1800677;77;21179;-71
2022/05/13 10:40:48;;;;;;;9.75;6.08;;;32.20;85.80;;;;;;1822310;77;21092;-77
2022/05/13 10:43:27;;;;;;;15.78;6.35;;;32.20;85.80;;;;;;1795538;78;21198;-81
2022/05/13 10:46:07;;;;;;;9.95;5.85;;;32.20;86.20;;;;;;1842887;77;21128;-80
2022/05/13 10:48:38;;;;;;;9.73;6.00;;;32.20;85.50;;;;;;1837035;75;21127;-80
2022/05/13 10:51:11;;;;;;;9.55;5.75;;;32.20;85.50;;;;;;1849992;75;21195;-81
2022/05/13 10:53:45;;;;;;;15.83;7.03;;;32.10;85.60;;;;;;1801312;77;21209;-81
2022/05/13 10:56:18;;;;;;;12.07;7.17;;;32.10;85.80;;;;;;1867471;75;21647;-83
2022/05/13 10:58:51;;;;;;;10.68;7.58;;;32.10;86.30;;;;;;1861807;74;21749;-83
2022/05/13 11:01:25;;;;;;;11.40;6.55;;;32.10;86.10;;;;;;1851428;74;21834;-82
2022/05/13 11:03:59;;;;;;;8.35;6.35;;;32.00;86.40;;;;;;1838270;76;21159;-81
2022/05/13 11:06:32;;;;;;;11.73;6.30;;;32.00;87.20;;;;;;1858840;74;21183;-82
2022/05/13 11:09:06;;;;;;;10.32;6.80;;;32.00;87.90;;;;;;1860172;74;21582;-81
2022/05/13 11:11:39;;;;;;;11.88;7.08;;;32.00;88.40;;;;;;1850092;75;21174;-80
2022/05/13 11:14:12;;;;;;;13.55;7.55;;;32.00;88.40;;;;;;1849986;75;21133;-80
2022/05/13 11:16:46;;;;;;;14.15;6.90;;;32.00;88.90;;;;;;1810924;77;21630;-81
2022/05/13 11:19:19;;;;;;;11.15;6.75;;;31.90;89.60;;;;;;1837095;76;21201;-83
2022/05/13 11:21:52;;;;;;;10.72;7.10;;;31.90;87.30;;;;;;1856233;77;21130;-82
2022/05/13 11:27:00;;;;;;;10.72;7.03;;;31.80;86.80;;;;;;1842310;75;21637;-83
2022/05/13 11:29:34;;;;;;;12.63;7.15;;;31.80;87.60;;;;;;1813104;77;21650;-82
2022/05/13 11:32:07;;;;;;;14.47;7.58;;;31.80;86.80;;;;;;1804237;78;21738;-83
2022/05/13 11:34:40;;;;;;;11.65;7.30;;;31.70;86.40;;;;;;1823280;76;21287;-82
2022/05/13 11:37:15;;;;;;;12.35;7.80;;;31.70;86.50;;;;;;1807883;76;21122;-82
2022/05/13 11:39:47;;;;;;;16.37;7.15;;;31.70;87.00;;;;;;1818748;78;21259;-82
2022/05/13 11:42:21;;;;;;;11.33;6.60;;;31.70;86.10;;;;;;1845979;76;21183;-81
2022/05/13 11:44:54;;;;;;;14.25;7.62;;;31.60;86.00;;;;;;1862376;75;21628;-80
2022/05/13 11:47:27;;;;;;;12.82;8.10;;;31.60;86.00;;;;;;1845515;76;21608;-82
2022/05/13 11:49:59;;;;;;;15.78;8.43;;;31.60;86.10;;;;;;1842357;76;21505;-82
2022/05/13 11:52:32;;;;;;;11.90;7.75;;;31.60;86.00;;;;;;1845425;77;21131;-82
2022/05/13 11:55:12;;;;;;;10.90;7.62;;;31.60;86.50;;;;;;1844940;76;21205;-81
2022/05/13 11:57:47;;;;;;;12.60;7.12;;;31.50;86.50;;;;;;1823519;76;21137;-81
2022/05/13 12:00:20;;;;;;;14.73;9.05;;;31.50;86.70;;;;;;1845345;77;21121;-81
2022/05/13 12:03:03;;;;;;;13.18;7.92;;;31.50;86.60;;;;;;1843730;76;21730;-83
2022/05/13 12:05:43;;;;;;;15.98;7.92;;;31.40;86.60;;;;;;1844214;76;21062;-81
2022/05/13 12:08:16;;;;;;;14.90;7.72;;;31.40;86.80;;;;;;1844583;76;21168;-82
2022/05/13 12:10:49;;;;;;;15.58;9.28;;;31.40;86.70;;;;;;1858822;75;21186;-82
2022/05/13 12:13:22;;;;;;;10.43;7.80;;;31.40;87.10;;;;;;1851181;74;21157;-81
2022/05/13 12:15:56;;;;;;;14.18;7.92;;;31.40;87.60;;;;;;1846329;75;21223;-82
2022/05/13 12:18:29;;;;;;;13.50;7.60;;;31.40;88.10;;;;;;1887051;74;21151;-81
2022/05/13 12:21:25;;;;;;;15.38;8.35;;;31.30;88.30;;;;;;1880057;74;21162;-82
2022/05/13 12:23:40;;;;;;;14.25;8.33;;;31.30;88.10;;;;;;1861307;74;21197;-82
2022/05/13 12:26:14;;;;;;;16.80;8.48;;;31.30;88.60;;;;;;1807338;78;21182;-80
2022/05/13 12:28:53;;;;;;;15.18;8.38;;;31.30;88.70;;;;;;1811427;78;21164;-82
2022/05/13 12:31:27;;;;;;;14.75;8.90;;;31.20;88.90;;;;;;1867362;75;21208;-82
2022/05/13 12:39:07;;;;;;;15.60;9.25;;;31.20;88.50;;;;;;1895709;74;21670;-83
2022/05/13 12:41:41;;;;;;;13.00;8.98;;;31.20;88.20;;;;;;1865096;75;21104;-82
2022/05/13 12:44:15;;;;;;;20.20;10.32;;;31.20;88.00;;;;;;1860011;75;21167;-82
2022/05/13 12:46:49;;;;;;;16.40;9.18;;;31.20;89.10;;;;;;1880808;74;21199;-81
2022/05/13 12:49:22;;;;;;;17.32;9.93;;;31.10;88.40;;;;;;1809949;77;21150;-83
2022/05/13 12:51:57;;;;;;;17.50;8.53;;;31.10;88.40;;;;;;1875283;75;21565;-82
2022/05/13 12:54:30;;;;;;;16.30;9.43;;;31.10;88.10;;;;;;1874117;75;21179;-82
2022/05/13 12:57:04;;;;;;;17.92;9.13;;;31.10;87.70;;;;;;1864543;76;21210;-82
2022/05/13 12:59:38;;;;;;;21.82;10.28;;;31.10;87.80;;;;;;1857644;75;21202;-81
2022/05/13 13:02:11;;;;;;;13.10;8.73;;;31.10;87.80;;;;;;1845804;75;21920;-82
2022/05/13 13:04:45;;;;;;;13.43;8.70;;;31.10;88.00;;;;;;1803660;77;21127;-82
2022/05/13 13:07:20;;;;;;;16.45;9.63;;;31.10;88.40;;;;;;1854337;75;21179;-82
2022/05/13 13:09:51;;;;;;;17.17;9.93;;;31.10;88.20;;;;;;1817400;77;21670;-83
2022/05/13 13:12:25;;;;;;;15.93;10.45;;;31.10;88.50;;;;;;1806446;77;21671;-81
2022/05/13 13:15:00;;;;;;;18.05;9.73;;;31.10;88.50;;;;;;1870256;74;21127;-82
2022/05/13 13:17:33;;;;;;;18.73;9.50;;;31.00;88.50;;;;;;1883171;75;21096;-82
2022/05/13 13:20:06;;;;;;;20.27;9.35;;;31.00;88.90;;;;;;1881321;75;21643;-82
2022/05/13 13:22:39;;;;;;;17.75;9.28;;;31.00;88.70;;;;;;1881263;75;21286;-82
2022/05/13 13:25:12;;;;;;;18.87;9.45;;;31.00;88.60;;;;;;1855839;75;21149;-81
2022/05/13 13:27:45;;;;;;;18.57;10.45;;;31.00;88.70;;;;;;1880575;74;21175;-81
2022/05/13 13:30:18;;;;;;;14.35;9.80;;;31.00;88.90;;;;;;1881582;75;21180;-81
2022/05/13 13:32:50;;;;;;;16.45;9.65;;;30.90;88.80;;;;;;1888280;74;21163;-82
2022/05/13 13:35:24;;;;;;;15.63;8.95;;;31.00;89.00;;;;;;1861304;75;21143;-82
2022/05/13 13:37:55;;;;;;;14.28;9.23;;;30.90;89.00;;;;;;1865833;74;21352;-81
2022/05/13 13:40:31;;;;;;;14.38;9.15;;;30.90;88.80;;;;;;1887222;74;21113;-83
2022/05/13 13:43:05;;;;;;;21.07;9.78;;;30.90;89.20;;;;;;1882486;74;21458;-82
2022/05/13 13:45:45;;;;;;;17.10;9.60;;;30.90;89.20;;;;;;1865432;74;21280;-81
2022/05/13 13:48:20;;;;;;;17.60;9.58;;;30.90;89.30;;;;;;1882327;73;21222;-82
2022/05/13 13:50:53;;;;;;;17.77;9.55;;;30.90;89.50;;;;;;1880904;74;21089;-83
2022/05/13 13:53:26;;;;;;;25.12;9.63;;;30.90;89.50;;;;;;1884747;74;21239;-82
2022/05/13 13:56:00;;;;;;;15.13;9.00;;;30.90;89.60;;;;;;1886934;74;21577;-81